createdAt,value
2023-12-23T00:02:36.155Z,1.43
2023-12-23T00:06:01.124Z,1.17
2023-12-23T00:09:25.490Z,1.30
2023-12-23T00:12:49.948Z,1.20
2023-12-23T00:16:14.162Z,1.10
2023-12-23T00:19:38.105Z,1.20
2023-12-23T00:23:03.260Z,1.70
2023-12-23T00:26:27.480Z,1.03
2023-12-23T00:29:51.053Z,1.20
2023-12-23T00:33:15.255Z,1.10
2023-12-23T00:36:38.900Z,1.20
2023-12-23T00:40:05.360Z,1.30
2023-12-23T00:43:29.161Z,1.00
2023-12-23T00:46:53.170Z,1.40
2023-12-23T00:50:17.679Z,1.77
2023-12-23T00:53:41.797Z,1.20
2023-12-23T00:57:07.095Z,1.10
2023-12-23T01:00:31.034Z,1.07
2023-12-23T01:03:55.476Z,1.30
2023-12-23T01:07:20.191Z,1.37
2023-12-23T01:10:44.140Z,1.20
2023-12-23T01:14:10.355Z,1.00
2023-12-23T01:17:34.284Z,1.10
2023-12-23T01:20:59.414Z,1.10
2023-12-23T01:24:23.494Z,1.00
2023-12-23T01:27:47.615Z,0.97
2023-12-23T01:31:12.735Z,0.80
2023-12-23T01:34:37.110Z,1.00
2023-12-23T01:38:02.479Z,1.10
2023-12-23T01:41:27.763Z,0.90
2023-12-23T01:44:51.390Z,1.10
2023-12-23T01:48:16.815Z,0.80
2023-12-23T01:51:41.189Z,1.00
2023-12-23T01:55:06.150Z,1.57
2023-12-23T01:58:30.455Z,1.10
2023-12-23T02:01:55.784Z,1.50
2023-12-23T02:05:21.290Z,1.30
2023-12-23T02:08:45.447Z,1.33
2023-12-23T02:12:24.686Z,1.20
2023-12-23T02:15:49.684Z,1.27
2023-12-23T02:19:13.560Z,1.13
2023-12-23T02:22:39.925Z,1.27
2023-12-23T02:26:08.450Z,1.60
2023-12-23T02:29:33.872Z,1.43
2023-12-23T02:32:58.839Z,1.30
2023-12-23T02:36:23.280Z,1.37
2023-12-23T02:39:48.144Z,1.40
2023-12-23T02:43:11.721Z,1.30
2023-12-23T02:46:35.550Z,1.20
2023-12-23T02:50:00.131Z,1.40
2023-12-23T02:53:24.182Z,1.13
2023-12-23T02:56:49.013Z,1.40
2023-12-23T03:00:13.982Z,0.90
2023-12-23T03:03:38.055Z,1.47
2023-12-23T03:07:01.918Z,1.20
2023-12-23T03:10:26.884Z,1.10
2023-12-23T03:13:53.241Z,1.20
2023-12-23T03:17:18.802Z,1.50
2023-12-23T03:20:42.471Z,1.10
2023-12-23T03:24:07.245Z,1.40
2023-12-23T03:27:30.693Z,1.33
2023-12-23T03:30:55.892Z,1.40
2023-12-23T03:34:22.078Z,1.30
2023-12-23T03:37:46.774Z,0.87
2023-12-23T03:41:12.526Z,1.03
2023-12-23T03:44:36.469Z,1.00
2023-12-23T03:48:03.219Z,1.30
2023-12-23T03:51:26.722Z,1.27
2023-12-23T03:54:50.625Z,1.20
2023-12-23T03:58:14.155Z,0.90
2023-12-23T04:01:38.078Z,1.40
2023-12-23T04:05:04.420Z,1.40
2023-12-23T04:08:28.393Z,1.17
2023-12-23T04:11:51.997Z,2.00
2023-12-23T04:15:16.107Z,1.23
2023-12-23T04:18:39.973Z,1.27
2023-12-23T04:22:05.586Z,1.10
2023-12-23T04:25:30.434Z,1.40
2023-12-23T04:28:54.402Z,0.93
2023-12-23T04:32:18.303Z,1.20
2023-12-23T04:35:42.165Z,1.00
2023-12-23T04:39:07.352Z,1.13
2023-12-23T04:42:31.556Z,0.90
2023-12-23T04:45:55.608Z,1.10
2023-12-23T04:49:20.051Z,0.93
2023-12-23T04:52:44.679Z,1.00
2023-12-23T04:56:09.810Z,1.10
2023-12-23T04:59:33.635Z,1.10
2023-12-23T05:02:57.137Z,1.30
2023-12-23T05:06:21.515Z,1.20
2023-12-23T05:09:45.570Z,1.10
2023-12-23T05:13:10.482Z,0.80
2023-12-23T05:16:33.984Z,0.80
2023-12-23T05:19:57.894Z,1.10
2023-12-23T05:23:22.181Z,0.70
2023-12-23T05:26:46.053Z,0.80
2023-12-23T05:30:13.384Z,0.83
2023-12-23T05:33:37.311Z,0.90
2023-12-23T05:37:01.233Z,0.80
2023-12-23T05:40:25.172Z,0.80
2023-12-23T05:43:49.150Z,1.10
2023-12-23T05:47:14.531Z,0.60
2023-12-23T05:50:38.580Z,0.73
2023-12-23T05:54:02.489Z,0.70
2023-12-23T05:57:25.907Z,1.33
2023-12-23T06:00:51.229Z,0.70
2023-12-23T06:04:16.080Z,0.70
2023-12-23T06:07:39.891Z,0.60
2023-12-23T06:11:05.894Z,0.70
2023-12-23T06:14:29.974Z,0.70
2023-12-23T06:17:54.176Z,0.60
2023-12-23T06:21:19.382Z,0.60
2023-12-23T06:24:42.835Z,0.70
2023-12-23T06:28:07.172Z,0.60
2023-12-23T06:31:30.951Z,0.60
2023-12-23T06:34:54.408Z,0.60
2023-12-23T06:38:20.137Z,0.60
2023-12-23T06:41:46.494Z,0.50
2023-12-23T06:45:14.299Z,0.50
2023-12-23T06:48:38.372Z,0.60
2023-12-23T06:52:02.292Z,0.60
2023-12-23T06:55:27.554Z,0.60
2023-12-23T06:58:51.424Z,0.60
2023-12-23T07:02:15.369Z,0.60
2023-12-23T07:05:39.363Z,0.50
2023-12-23T07:09:04.707Z,0.70
2023-12-23T07:12:31.052Z,0.60
2023-12-23T07:15:55.543Z,0.87
2023-12-23T07:19:19.623Z,0.70
2023-12-23T07:22:43.493Z,0.60
2023-12-23T07:26:07.705Z,0.60
2023-12-23T07:29:32.863Z,0.60
2023-12-23T07:32:56.715Z,0.93
2023-12-23T07:36:20.365Z,0.60
2023-12-23T07:39:44.114Z,0.70
2023-12-23T07:43:08.239Z,0.80
2023-12-23T07:46:33.802Z,0.60
2023-12-23T07:49:57.321Z,0.70
2023-12-23T07:53:21.316Z,0.60
2023-12-23T07:56:44.817Z,0.70
2023-12-23T08:00:09.628Z,0.60
2023-12-23T08:03:34.778Z,0.60
2023-12-23T08:06:58.690Z,0.60
2023-12-23T08:10:22.779Z,1.00
2023-12-23T08:13:47.167Z,0.70
2023-12-23T08:17:12.611Z,0.50
2023-12-23T08:20:38.581Z,0.60
2023-12-23T08:24:04.911Z,0.70
2023-12-23T08:27:29.032Z,0.60
2023-12-23T08:30:52.975Z,0.60
2023-12-23T08:34:18.964Z,0.70
2023-12-23T08:37:46.213Z,0.60
2023-12-23T08:41:09.885Z,0.60
2023-12-23T08:44:33.435Z,0.60
2023-12-23T08:47:58.145Z,0.60
2023-12-23T08:51:21.891Z,0.60
2023-12-23T08:54:46.711Z,0.70
2023-12-23T08:58:10.470Z,0.60
2023-12-23T09:01:34.474Z,0.60
2023-12-23T09:04:58.451Z,0.60
2023-12-23T09:08:22.707Z,0.53
2023-12-23T09:11:48.085Z,0.60
2023-12-23T09:15:12.037Z,0.70
2023-12-23T09:18:36.028Z,0.57
2023-12-23T09:21:59.929Z,0.60
2023-12-23T09:25:23.747Z,0.60
2023-12-23T09:28:48.552Z,0.73
2023-12-23T09:32:12.488Z,0.60
2023-12-23T09:35:36.503Z,0.70
2023-12-23T09:39:00.363Z,0.60
2023-12-23T09:42:25.333Z,0.50
2023-12-23T09:45:51.933Z,0.70
2023-12-23T09:49:16.050Z,0.50
2023-12-23T09:52:41.005Z,0.60
2023-12-23T09:56:05.076Z,0.60
2023-12-23T09:59:30.104Z,0.60
2023-12-23T10:02:55.251Z,0.60
2023-12-23T10:06:22.389Z,0.70
2023-12-23T10:09:49.683Z,0.60
2023-12-23T10:13:13.984Z,0.70
2023-12-23T10:16:39.469Z,0.60
2023-12-23T10:20:07.502Z,0.60
2023-12-23T10:23:31.699Z,0.60
2023-12-23T10:26:55.596Z,0.60
2023-12-23T10:30:22.153Z,0.60
2023-12-23T10:33:56.420Z,0.50
2023-12-23T10:37:24.588Z,0.60
2023-12-23T10:40:58.021Z,0.60
2023-12-23T10:44:23.961Z,0.60
2023-12-23T10:47:51.520Z,0.60
2023-12-23T10:51:16.950Z,0.60
2023-12-23T10:54:41.898Z,0.60
2023-12-23T10:58:08.936Z,0.63
2023-12-23T11:01:35.052Z,0.60
2023-12-23T11:05:03.002Z,0.63
2023-12-23T11:08:28.900Z,0.60
2023-12-23T11:11:54.338Z,0.60
2023-12-23T11:15:19.298Z,0.60
2023-12-23T11:18:43.119Z,0.60
2023-12-23T11:22:26.446Z,0.60
2023-12-23T11:25:50.448Z,0.70
2023-12-23T11:29:16.896Z,0.60
2023-12-23T11:32:45.091Z,0.70
2023-12-23T11:36:09.868Z,0.70
2023-12-23T11:39:33.682Z,0.70
2023-12-23T11:42:58.435Z,0.70
2023-12-23T11:46:26.316Z,0.70
2023-12-23T11:49:50.032Z,0.60
2023-12-23T11:53:15.373Z,0.60
2023-12-23T11:56:39.405Z,0.60
2023-12-23T12:00:04.462Z,0.60
2023-12-23T12:03:30.959Z,0.70
2023-12-23T12:06:56.625Z,0.70
2023-12-23T12:10:20.636Z,0.70
2023-12-23T12:13:47.869Z,0.60
2023-12-23T12:17:11.874Z,0.60
2023-12-23T12:20:36.816Z,0.80
2023-12-23T12:24:00.870Z,0.70
2023-12-23T12:27:24.862Z,0.60
2023-12-23T12:30:49.000Z,0.70
2023-12-23T12:34:14.398Z,0.60
2023-12-23T12:37:39.905Z,0.63
2023-12-23T12:41:03.513Z,0.60
2023-12-23T12:44:28.250Z,0.70
2023-12-23T12:47:52.397Z,0.80
2023-12-23T12:51:18.223Z,0.60
2023-12-23T12:54:44.243Z,0.70
2023-12-23T12:58:08.377Z,0.70
2023-12-23T13:01:32.150Z,0.60
2023-12-23T13:04:57.307Z,0.77
2023-12-23T13:08:21.215Z,0.70
2023-12-23T13:11:46.175Z,0.90
2023-12-23T13:15:10.404Z,0.70
2023-12-23T13:18:45.595Z,0.60
2023-12-23T13:22:16.749Z,0.60
2023-12-23T13:25:40.688Z,0.63
2023-12-23T13:29:05.758Z,0.60
2023-12-23T13:32:29.733Z,0.70
2023-12-23T13:35:53.584Z,0.60
2023-12-23T13:39:17.782Z,0.70
2023-12-23T13:42:41.942Z,0.57
2023-12-23T13:46:07.771Z,0.60
2023-12-23T13:49:31.742Z,0.73
2023-12-23T13:52:56.079Z,0.70
2023-12-23T13:56:20.349Z,0.67
2023-12-23T13:59:44.454Z,0.70
2023-12-23T14:03:09.368Z,0.60
2023-12-23T14:06:33.003Z,0.80
2023-12-23T14:09:57.004Z,0.70
2023-12-23T14:13:21.042Z,0.60
2023-12-23T14:16:44.880Z,0.60
2023-12-23T14:20:12.553Z,0.63
2023-12-23T14:23:37.509Z,0.70
2023-12-23T14:27:01.937Z,0.77
2023-12-23T14:30:26.448Z,0.73
2023-12-23T14:33:52.871Z,0.70
2023-12-23T14:37:17.769Z,0.70
2023-12-23T14:40:41.612Z,0.70
2023-12-23T14:44:06.505Z,0.70
2023-12-23T14:47:30.751Z,0.70
2023-12-23T14:50:54.782Z,0.60
2023-12-23T14:54:21.042Z,0.77
2023-12-23T14:57:45.252Z,0.70
2023-12-23T15:01:10.299Z,0.60
2023-12-23T15:04:34.193Z,0.80
2023-12-23T15:07:58.169Z,0.60
2023-12-23T15:11:23.152Z,0.70
2023-12-23T15:14:47.036Z,0.80
2023-12-23T15:18:12.035Z,0.63
2023-12-23T15:21:35.563Z,0.70
2023-12-23T15:24:59.508Z,0.70
2023-12-23T15:28:24.764Z,0.80
2023-12-23T15:31:48.716Z,0.60
2023-12-23T15:35:12.670Z,0.60
2023-12-23T15:38:36.321Z,0.60
2023-12-23T15:41:59.975Z,0.70
2023-12-23T15:45:24.955Z,0.70
2023-12-23T15:48:49.273Z,0.50
2023-12-23T15:52:13.384Z,0.60
2023-12-23T15:55:37.203Z,0.60
2023-12-23T15:59:01.169Z,0.80
2023-12-23T16:02:26.503Z,0.60
2023-12-23T16:05:50.749Z,0.60
2023-12-23T16:09:16.387Z,0.70
2023-12-23T16:12:40.454Z,0.67
2023-12-23T16:16:04.856Z,0.90
2023-12-23T16:19:32.006Z,0.80
2023-12-23T16:22:57.418Z,0.77
2023-12-23T16:26:22.152Z,0.73
2023-12-23T16:29:45.928Z,0.80
2023-12-23T16:33:10.023Z,0.70
2023-12-23T16:36:34.902Z,0.70
2023-12-23T16:39:59.032Z,0.70
2023-12-23T16:43:22.911Z,0.80
2023-12-23T16:46:47.116Z,0.67
2023-12-23T16:50:11.968Z,0.80
2023-12-23T16:53:37.242Z,0.73
2023-12-23T16:57:01.400Z,0.80
2023-12-23T17:00:26.389Z,3.63
2023-12-23T17:03:50.326Z,1.80
2023-12-23T17:07:14.256Z,1.20
2023-12-23T17:10:39.288Z,0.90
2023-12-23T17:14:03.617Z,0.70
2023-12-23T17:17:27.571Z,0.70
2023-12-23T17:20:51.409Z,0.70
2023-12-23T17:24:15.195Z,0.70
2023-12-23T17:27:40.034Z,0.80
2023-12-23T17:31:04.107Z,0.63
2023-12-23T17:34:28.538Z,0.60
2023-12-23T17:37:52.355Z,0.60
2023-12-23T17:41:16.596Z,0.93
2023-12-23T17:44:41.486Z,0.90
2023-12-23T17:48:07.358Z,0.77
2023-12-23T17:51:31.368Z,0.70
2023-12-23T17:54:55.217Z,0.90
2023-12-23T17:58:19.461Z,0.70
2023-12-23T18:01:44.495Z,0.80
2023-12-23T18:05:09.071Z,0.60
2023-12-23T18:08:33.461Z,0.70
2023-12-23T18:11:57.010Z,0.70
2023-12-23T18:15:20.946Z,0.80
2023-12-23T18:18:46.061Z,0.90
2023-12-23T18:22:10.028Z,1.00
2023-12-23T18:25:33.651Z,1.20
2023-12-23T18:28:57.608Z,0.93
2023-12-23T18:32:21.840Z,1.30
2023-12-23T18:35:47.420Z,1.23
2023-12-23T18:39:11.449Z,1.03
2023-12-23T18:42:35.382Z,1.23
2023-12-23T18:45:59.173Z,1.00
2023-12-23T18:49:22.978Z,1.00
2023-12-23T18:52:47.956Z,1.00
2023-12-23T18:56:13.248Z,1.00
2023-12-23T18:59:38.268Z,1.00
2023-12-23T19:03:02.433Z,1.00
2023-12-23T19:06:26.318Z,0.80
2023-12-23T19:09:51.206Z,0.90
2023-12-23T19:13:15.126Z,0.90
2023-12-23T19:16:38.962Z,0.77
2023-12-23T19:20:04.115Z,0.87
2023-12-23T19:23:28.592Z,0.70
2023-12-23T19:26:53.984Z,0.90
2023-12-23T19:30:18.223Z,0.70
2023-12-23T19:33:41.664Z,0.80
2023-12-23T19:37:05.756Z,1.20
2023-12-23T19:40:29.226Z,1.20
2023-12-23T19:43:56.220Z,1.57
2023-12-23T19:47:20.216Z,1.00
2023-12-23T19:50:44.007Z,0.77
2023-12-23T19:54:07.926Z,0.80
2023-12-23T19:57:32.159Z,0.70
2023-12-23T20:00:58.078Z,0.80
2023-12-23T20:04:21.899Z,0.70
2023-12-23T20:07:45.836Z,0.70
2023-12-23T20:11:09.753Z,0.70
2023-12-23T20:14:35.902Z,0.70
2023-12-23T20:18:01.967Z,0.60
2023-12-23T20:21:26.121Z,0.70
2023-12-23T20:24:50.034Z,0.90
2023-12-23T20:28:14.098Z,0.70
2023-12-23T20:31:39.161Z,0.90
2023-12-23T20:35:04.916Z,0.70
2023-12-23T20:38:29.118Z,0.70
2023-12-23T20:41:53.192Z,0.60
2023-12-23T20:45:17.240Z,0.70
2023-12-23T20:48:41.751Z,0.70
2023-12-23T20:52:07.778Z,0.87
2023-12-23T20:55:31.290Z,0.60
2023-12-23T20:58:55.280Z,0.60
2023-12-23T21:02:19.639Z,0.70
2023-12-23T21:05:44.759Z,0.63
2023-12-23T21:09:11.117Z,0.70
2023-12-23T21:12:35.006Z,0.60
2023-12-23T21:15:59.563Z,0.60
2023-12-23T21:19:25.465Z,0.60
2023-12-23T21:22:49.642Z,0.60
2023-12-23T21:26:24.233Z,0.70
2023-12-23T21:29:48.605Z,0.70
2023-12-23T21:33:12.632Z,0.60
2023-12-23T21:36:36.257Z,0.60
2023-12-23T21:40:00.422Z,0.70
2023-12-23T21:43:25.372Z,0.70
2023-12-23T21:46:51.934Z,0.70
2023-12-23T21:50:16.260Z,0.60
2023-12-23T21:53:39.772Z,0.67
2023-12-23T21:57:03.717Z,0.60
2023-12-23T22:00:28.926Z,0.60
2023-12-23T22:03:52.630Z,0.70
2023-12-23T22:07:16.642Z,0.80
2023-12-23T22:10:40.961Z,0.70
2023-12-23T22:14:04.624Z,0.60
2023-12-23T22:17:30.051Z,0.60
2023-12-23T22:20:53.666Z,0.70
2023-12-23T22:24:17.589Z,0.70
2023-12-23T22:27:41.682Z,0.60
2023-12-23T22:31:06.048Z,0.60
2023-12-23T22:34:31.352Z,0.70
2023-12-23T22:37:55.274Z,0.70
2023-12-23T22:41:19.477Z,0.70
2023-12-23T22:44:43.230Z,0.60
2023-12-23T22:48:08.462Z,0.70
2023-12-23T22:51:36.503Z,0.60
2023-12-23T22:55:00.558Z,0.70
2023-12-23T22:58:26.178Z,0.60
2023-12-23T23:01:49.754Z,0.63
2023-12-23T23:05:13.749Z,0.70
2023-12-23T23:08:39.893Z,0.60
2023-12-23T23:12:03.918Z,0.83
2023-12-23T23:15:27.808Z,0.60
2023-12-23T23:18:51.853Z,0.67
2023-12-23T23:22:15.879Z,0.70
2023-12-23T23:25:40.826Z,0.60
2023-12-23T23:29:05.409Z,0.60
2023-12-23T23:32:29.814Z,0.80
2023-12-23T23:35:53.773Z,0.60
2023-12-23T23:39:17.763Z,0.70
2023-12-23T23:42:43.221Z,0.60
2023-12-23T23:46:14.159Z,0.60
2023-12-23T23:49:38.105Z,0.60
2023-12-23T23:53:03.656Z,0.70
2023-12-23T23:56:28.893Z,0.70
2023-12-23T23:59:54.123Z,0.70
